Time;durP1;ratioP1;P1;durP2;ratioP2;P2;SDS_P1;SDS_P2;PMS_P1;PMS_P2;Temp;Humidity;BMP_temperature;BMP_pressure;BME280_temperature;BME280_humidity;BME280_pressure;Samples;Min_cycle;Max_cycle;Signal;HPM_P1;HPM_P2
2023/08/20 00:02:19;;;;;;;6.80;5.60;;;;;;;21.39;100.00;100034.29;109376;1252;73952;-75
2023/08/20 00:04:46;;;;;;;9.30;5.70;;;;;;;21.36;100.00;100032.01;109187;1253;69651;-74
2023/08/20 00:07:15;;;;;;;10.10;6.30;;;;;;;21.33;100.00;100033.44;109368;1253;71749;-74
2023/08/20 00:09:44;;;;;;;7.60;6.20;;;;;;;21.31;100.00;100026.13;109399;1253;58776;-74
2023/08/20 00:12:11;;;;;;;11.40;6.60;;;;;;;21.28;100.00;100030.40;109374;1257;58843;-74
2023/08/20 00:14:53;;;;;;;10.70;5.90;;;;;;;21.27;100.00;100031.42;109397;1253;72989;-74
2023/08/20 00:17:21;;;;;;;9.50;5.60;;;;;;;21.26;100.00;100033.83;109361;1253;70918;-74
2023/08/20 00:19:49;;;;;;;11.50;6.50;;;;;;;21.23;100.00;100030.27;109398;1253;72663;-74
2023/08/20 00:22:17;;;;;;;7.90;6.00;;;;;;;21.21;100.00;100032.23;109407;1252;60579;-74
2023/08/20 00:24:44;;;;;;;10.40;6.00;;;;;;;21.20;100.00;100033.70;109378;1252;58697;-74
2023/08/20 00:27:12;;;;;;;9.30;6.10;;;;;;;21.19;100.00;100026.98;109384;1253;73957;-74
2023/08/20 00:29:39;;;;;;;8.00;5.40;;;;;;;21.17;100.00;100025.86;109162;1253;70160;-74
2023/08/20 00:32:07;;;;;;;10.60;5.70;;;;;;;21.15;100.00;100026.85;109353;1253;72702;-74
2023/08/20 00:34:35;;;;;;;7.40;5.90;;;;;;;21.13;100.00;100026.63;109362;1253;59107;-74
2023/08/20 00:37:03;;;;;;;6.90;5.30;;;;;;;21.09;100.00;100024.28;109393;1251;59388;-74
2023/08/20 00:39:30;;;;;;;6.20;5.20;;;;;;;21.05;100.00;100018.67;109362;1251;73866;-74
2023/08/20 00:41:58;;;;;;;7.10;6.10;;;;;;;21.02;100.00;100018.88;109447;1253;71956;-74
2023/08/20 00:44:26;;;;;;;9.80;6.10;;;;;;;21.00;100.00;100019.91;109369;1251;70501;-74
2023/08/20 00:46:54;;;;;;;8.00;6.10;;;;;;;20.98;100.00;100019.89;109342;1253;61649;-74
2023/08/20 00:49:21;;;;;;;7.60;6.00;;;;;;;20.96;100.00;100019.84;109437;1251;58736;-74
2023/08/20 00:51:49;;;;;;;6.20;5.30;;;;;;;20.94;100.00;100023.71;109185;1252;322433;-74
2023/08/20 00:54:16;;;;;;;8.40;5.60;;;;;;;20.93;100.00;100020.76;109423;1251;71324;-74
2023/08/20 00:56:44;;;;;;;11.20;5.80;;;;;;;20.92;100.00;100017.83;109425;1251;72763;-75
2023/08/20 00:59:12;;;;;;;10.20;5.20;;;;;;;20.90;100.00;100018.66;109401;1253;60394;-74
2023/08/20 01:01:40;;;;;;;6.00;5.20;;;;;;;20.88;100.00;100017.88;109371;1251;60809;-74
2023/08/20 01:04:07;;;;;;;11.00;5.40;;;;;;;20.86;100.00;100021.48;109454;1251;72858;-74
2023/08/20 01:07:07;;;;;;;9.60;5.20;;;;;;;20.85;100.00;100021.36;109421;1251;71131;-74
2023/08/20 01:09:42;;;;;;;7.50;5.80;;;;;;;20.84;100.00;100019.07;108975;1262;72407;-74
2023/08/20 01:12:09;;;;;;;6.70;5.40;;;;;;;20.83;100.00;100010.80;109436;1251;58832;-74
2023/08/20 01:14:36;;;;;;;8.40;5.50;;;;;;;20.81;100.00;100008.06;109359;1251;60033;-74
2023/08/20 01:17:04;;;;;;;7.40;5.80;;;;;;;20.80;100.00;100012.05;109441;1251;74268;-74
2023/08/20 01:19:32;;;;;;;10.90;5.60;;;;;;;20.79;100.00;100016.21;109383;1251;69926;-74
2023/08/20 01:22:25;;;;;;;8.00;5.30;;;;;;;20.78;100.00;100020.69;109389;1253;72475;-74
2023/08/20 01:25:00;;;;;;;8.10;5.60;;;;;;;20.77;100.00;100021.45;109201;1253;60013;-74
2023/08/20 01:27:53;;;;;;;8.40;5.60;;;;;;;20.77;100.00;100020.04;109438;1253;59999;-74
2023/08/20 01:30:21;;;;;;;6.20;5.10;;;;;;;20.78;100.00;100017.70;109384;1251;73879;-74
2023/08/20 01:32:50;;;;;;;8.00;5.20;;;;;;;20.78;100.00;100015.91;109387;1251;71097;-74
2023/08/20 01:35:18;;;;;;;8.80;5.20;;;;;;;20.76;100.00;100014.64;109383;1251;72736;-74
2023/08/20 01:37:45;;;;;;;8.20;5.50;;;;;;;20.74;100.00;100009.95;109395;1252;59271;-74
2023/08/20 01:40:13;;;;;;;7.70;5.20;;;;;;;20.71;100.00;100009.27;109482;1251;60082;-74
2023/08/20 01:42:40;;;;;;;5.80;5.00;;;;;;;20.69;100.00;100010.80;109441;1251;71663;-74
2023/08/20 01:45:08;;;;;;;8.40;5.50;;;;;;;20.69;100.00;100011.55;109473;1251;70403;-74
2023/08/20 01:47:36;;;;;;;7.10;4.70;;;;;;;20.68;100.00;100011.05;109387;1251;72308;-74
2023/08/20 01:50:04;;;;;;;6.90;4.80;;;;;;;20.67;100.00;100009.39;109423;1253;58815;-74
2023/08/20 01:52:34;;;;;;;8.60;5.50;;;;;;;20.65;100.00;100011.63;109420;1251;58800;-74
2023/08/20 01:55:02;;;;;;;7.40;5.40;;;;;;;20.64;100.00;100009.23;109413;1251;73873;-74
2023/08/20 01:57:30;;;;;;;6.90;5.00;;;;;;;20.63;100.00;100013.17;109449;1251;71100;-74
2023/08/20 01:59:58;;;;;;;12.00;5.80;;;;;;;20.64;100.00;100013.70;109355;1251;71934;-74
2023/08/20 02:02:26;;;;;;;10.40;5.90;;;;;;;20.62;100.00;100013.59;109411;1254;58892;-74
2023/08/20 02:04:53;;;;;;;5.80;5.20;;;;;;;20.58;100.00;100020.45;109384;1251;62208;-74
2023/08/20 02:07:21;;;;;;;7.40;5.10;;;;;;;20.57;100.00;100023.71;109431;1251;73822;-73
2023/08/20 02:09:48;;;;;;;8.80;5.50;;;;;;;20.56;100.00;100018.25;109409;1255;70962;-74
2023/08/20 02:12:16;;;;;;;8.40;5.80;;;;;;;20.56;100.00;100020.22;109421;1251;72712;-74
2023/08/20 02:14:43;;;;;;;8.00;6.10;;;;;;;20.55;100.00;100022.48;109387;1251;60053;-74
2023/08/20 02:17:12;;;;;;;6.00;5.20;;;;;;;20.54;100.00;100025.02;109432;1254;60041;-74
2023/08/20 02:19:39;;;;;;;15.00;6.20;;;;;;;20.54;100.00;100025.39;109419;1251;73895;-74
2023/08/20 02:22:06;;;;;;;7.70;4.70;;;;;;;20.52;100.00;100028.55;109418;1251;70811;-74
2023/08/20 02:24:34;;;;;;;6.50;5.70;;;;;;;20.51;100.00;100029.30;109413;1254;71331;-74
2023/08/20 02:27:01;;;;;;;6.00;5.20;;;;;;;20.49;100.00;100029.07;109414;1255;59272;-74
2023/08/20 02:29:29;;;;;;;10.70;5.40;;;;;;;20.47;100.00;100028.85;109446;1251;58781;-74
2023/08/20 02:31:56;;;;;;;6.50;5.20;;;;;;;20.45;100.00;100025.66;109416;1251;71906;-74
2023/08/20 02:34:24;;;;;;;8.70;5.80;;;;;;;20.43;100.00;100025.07;109438;1251;71117;-74
2023/08/20 02:36:52;;;;;;;9.00;5.60;;;;;;;20.42;100.00;100025.45;109428;1251;72334;-74
2023/08/20 02:39:20;;;;;;;5.70;4.90;;;;;;;20.40;100.00;100026.45;109400;1251;60407;-74
2023/08/20 02:41:47;;;;;;;8.60;6.00;;;;;;;20.37;100.00;100027.01;109457;1251;58755;-74
2023/08/20 02:44:15;;;;;;;6.60;5.90;;;;;;;20.36;100.00;100022.81;109442;1250;74001;-74
2023/08/20 02:46:44;;;;;;;9.30;5.80;;;;;;;20.35;100.00;100023.60;109354;1251;69508;-74
2023/08/20 02:49:12;;;;;;;16.60;5.50;;;;;;;20.33;100.00;100025.67;109413;1255;71282;-74
2023/08/20 02:51:43;;;;;;;9.30;6.10;;;;;;;20.32;100.00;100028.61;109370;1251;61694;-74
2023/08/20 02:54:10;;;;;;;12.40;5.80;;;;;;;20.30;100.00;100027.86;109450;1251;58751;-74
2023/08/20 02:56:37;;;;;;;16.20;6.60;;;;;;;20.28;100.00;100035.11;109372;1254;72582;-74
2023/08/20 02:59:05;;;;;;;16.30;6.60;;;;;;;20.27;100.00;100036.28;109415;1251;70050;-74
2023/08/20 03:01:33;;;;;;;18.90;7.00;;;;;;;20.26;100.00;100039.71;109346;1251;72314;-74
2023/08/20 03:04:00;;;;;;;13.70;6.30;;;;;;;20.26;100.00;100037.94;109347;1251;61637;-74
2023/08/20 03:06:28;;;;;;;11.40;6.10;;;;;;;20.25;100.00;100035.14;109407;1251;58726;-74
2023/08/20 03:08:55;;;;;;;15.10;6.60;;;;;;;20.24;100.00;100038.75;109397;1251;74287;-74
2023/08/20 03:11:23;;;;;;;11.10;6.30;;;;;;;20.24;100.00;100034.85;109431;1251;70777;-74
2023/08/20 03:13:50;;;;;;;13.40;6.60;;;;;;;20.24;100.00;100032.34;109411;1251;72705;-74
2023/08/20 03:16:17;;;;;;;13.80;7.00;;;;;;;20.24;100.00;100034.31;109430;1251;60449;-74
2023/08/20 03:18:45;;;;;;;11.70;7.00;;;;;;;20.25;100.00;100036.77;109412;1251;58247;-74
2023/08/20 03:21:12;;;;;;;14.10;7.10;;;;;;;20.25;100.00;100040.14;109411;1251;73852;-74
2023/08/20 03:23:40;;;;;;;11.90;6.70;;;;;;;20.25;100.00;100038.15;109447;1251;70955;-74
2023/08/20 03:26:07;;;;;;;13.60;6.10;;;;;;;20.28;100.00;100040.86;109452;1251;72695;-75
2023/08/20 03:28:35;;;;;;;7.80;5.30;;;;;;;20.29;100.00;100039.54;109386;1251;60559;-74
2023/08/20 03:31:02;;;;;;;9.00;6.00;;;;;;;20.28;100.00;100034.21;109414;1253;60017;-74
2023/08/20 03:33:32;;;;;;;7.60;6.00;;;;;;;20.29;100.00;100036.65;109399;1251;73901;-74
2023/08/20 03:36:00;;;;;;;13.00;6.20;;;;;;;20.29;100.00;100030.25;109434;1251;71172;-75
2023/08/20 03:38:27;;;;;;;9.30;6.10;;;;;;;20.32;100.00;100034.85;109373;1251;71068;-74
2023/08/20 03:40:55;;;;;;;15.20;6.30;;;;;;;20.35;100.00;100032.19;109424;1251;61757;-74
2023/08/20 03:43:22;;;;;;;12.90;6.50;;;;;;;20.37;100.00;100033.98;109368;1251;58777;-74
2023/08/20 03:45:51;;;;;;;11.60;6.60;;;;;;;20.40;100.00;100038.41;109350;1251;73965;-75
2023/08/20 03:48:19;;;;;;;10.20;6.60;;;;;;;20.44;100.00;100037.23;109398;1251;71117;-74
2023/08/20 03:50:46;;;;;;;13.90;8.00;;;;;;;20.48;100.00;100036.44;109389;1251;72700;-74
2023/08/20 03:53:15;;;;;;;11.20;7.40;;;;;;;20.54;100.00;100033.92;109409;1251;60845;-74
2023/08/20 03:55:49;;;;;;;11.20;6.60;;;;;;;20.58;100.00;100029.88;109354;1251;60110;-73
2023/08/20 03:58:17;;;;;;;9.90;7.00;;;;;;;20.64;100.00;100023.64;109359;1251;74375;-74
2023/08/20 04:00:44;;;;;;;14.90;7.40;;;;;;;20.69;100.00;100019.52;109341;1251;71065;-75
2023/08/20 04:03:12;;;;;;;14.60;8.70;;;;;;;20.76;100.00;100014.42;109385;1251;71496;-74
2023/08/20 04:05:40;;;;;;;12.90;8.80;;;;;;;20.84;100.00;100007.84;109409;1251;60369;-74
2023/08/20 04:08:07;;;;;;;11.90;8.10;;;;;;;20.91;100.00;100007.88;109435;1251;58758;-74
2023/08/20 04:10:35;;;;;;;16.70;9.50;;;;;;;20.98;100.00;100006.34;109404;1251;72573;-74
2023/08/20 04:13:05;;;;;;;19.50;10.10;;;;;;;21.04;100.00;100008.90;109416;1256;70797;-74
2023/08/20 04:15:33;;;;;;;14.20;9.00;;;;;;;21.11;100.00;100011.11;109432;1251;70762;-75
2023/08/20 04:18:00;;;;;;;25.70;9.60;;;;;;;21.19;100.00;100009.85;109374;1251;61629;-75
2023/08/20 04:20:28;;;;;;;14.40;10.00;;;;;;;21.27;100.00;100011.98;109293;1251;58731;-74
2023/08/20 04:22:55;;;;;;;14.40;9.20;;;;;;;21.35;100.00;100014.64;109405;1254;72658;-74
2023/08/20 04:25:23;;;;;;;18.70;9.50;;;;;;;21.44;100.00;100018.39;109438;1251;69648;-74
2023/08/20 04:27:51;;;;;;;18.00;9.70;;;;;;;21.56;100.00;100020.47;109361;1254;72738;-74
2023/08/20 04:30:18;;;;;;;22.70;9.80;;;;;;;21.67;100.00;100014.43;109400;1251;61728;-74
2023/08/20 04:32:46;;;;;;;31.40;9.60;;;;;;;21.78;100.00;100015.80;109380;1251;59998;-74
2023/08/20 04:35:14;;;;;;;23.60;9.90;;;;;;;21.88;100.00;100013.29;109288;1251;73797;-74
2023/08/20 04:37:42;;;;;;;20.90;9.90;;;;;;;21.98;100.00;100013.30;109287;1251;70795;-74
2023/08/20 04:40:10;;;;;;;20.50;9.60;;;;;;;22.08;100.00;100013.04;109294;1251;72479;-75
2023/08/20 04:42:38;;;;;;;16.10;9.20;;;;;;;22.18;100.00;100012.66;109295;1251;61815;-74
2023/08/20 04:45:06;;;;;;;19.00;9.20;;;;;;;22.27;100.00;100008.08;109367;1251;58831;-74
2023/08/20 04:47:34;;;;;;;13.80;8.10;;;;;;;22.36;100.00;100005.47;109366;1251;74112;-74
2023/08/20 04:50:06;;;;;;;12.80;8.50;;;;;;;22.45;100.00;100002.04;109377;1251;69788;-74
2023/08/20 04:52:34;;;;;;;15.10;8.60;;;;;;;22.55;100.00;100002.02;109399;1251;72505;-74
2023/08/20 04:55:02;;;;;;;15.40;8.30;;;;;;;22.67;100.00;99998.78;109419;1251;60438;-74
2023/08/20 04:57:29;;;;;;;11.90;8.90;;;;;;;22.82;100.00;100002.84;109425;1251;59133;-74
2023/08/20 04:59:57;;;;;;;16.40;8.80;;;;;;;22.96;100.00;99997.79;109326;1251;72544;-74
2023/08/20 05:02:37;;;;;;;13.80;8.70;;;;;;;23.10;100.00;99997.63;109311;1251;62643;-74
2023/08/20 05:05:05;;;;;;;11.60;8.20;;;;;;;23.23;100.00;99997.34;109272;1251;72450;-74
2023/08/20 05:07:34;;;;;;;16.70;8.70;;;;;;;23.34;100.00;100003.19;109365;1251;60397;-75
2023/08/20 05:10:02;;;;;;;11.10;8.40;;;;;;;23.45;100.00;99995.02;109339;1251;59651;-74
2023/08/20 05:12:30;;;;;;;14.90;9.00;;;;;;;23.56;100.00;99997.70;109296;1251;73870;-74
2023/08/20 05:14:57;;;;;;;11.00;7.80;;;;;;;23.67;100.00;99997.34;109261;1251;70763;-74
2023/08/20 05:17:25;;;;;;;22.10;7.90;;;;;;;23.82;100.00;99999.59;109256;1251;72827;-74
2023/08/20 05:19:52;;;;;;;18.10;7.70;;;;;;;23.94;100.00;99997.50;109365;1251;60904;-74
2023/08/20 05:22:20;;;;;;;22.40;7.70;;;;;;;24.08;100.00;99992.02;109296;1251;58586;-74
2023/08/20 05:24:47;;;;;;;16.60;7.10;;;;;;;24.22;100.00;99975.61;109356;1251;74246;-74
2023/08/20 05:27:17;;;;;;;14.90;7.40;;;;;;;24.35;100.00;99972.55;109392;1251;70940;-74
2023/08/20 05:29:45;;;;;;;18.00;8.60;;;;;;;24.48;100.00;99978.45;109395;1254;71620;-74
2023/08/20 05:32:16;;;;;;;14.30;8.30;;;;;;;24.62;100.00;99977.44;109292;1251;58800;-75
2023/08/20 05:34:44;;;;;;;17.80;8.80;;;;;;;24.77;100.00;99978.45;109281;1251;60019;-74
2023/08/20 05:37:12;;;;;;;10.20;6.60;;;;;;;24.91;100.00;99976.21;109329;1251;73217;-74
2023/08/20 05:39:43;;;;;;;8.30;5.10;;;;;;;25.05;100.00;99956.89;109303;1251;70908;-74
2023/08/20 05:42:11;;;;;;;15.30;6.00;;;;;;;25.18;100.00;99942.03;109402;1251;72916;-75
2023/08/20 05:44:39;;;;;;;25.40;8.40;;;;;;;25.32;100.00;99935.46;109291;1254;58375;-75
2023/08/20 05:47:09;;;;;;;19.60;9.40;;;;;;;25.45;100.00;99930.34;109297;1251;58752;-75
2023/08/20 05:49:37;;;;;;;13.60;7.50;;;;;;;25.57;100.00;99924.40;109268;1251;74246;-74
2023/08/20 05:52:05;;;;;;;14.70;6.60;;;;;;;25.69;100.00;99924.27;109338;1251;70120;-74
2023/08/20 05:54:34;;;;;;;14.50;7.60;;;;;;;25.79;100.00;99925.42;109258;1251;63767;-74
2023/08/20 05:57:02;;;;;;;17.40;6.50;;;;;;;25.88;100.00;99917.80;109282;1251;59478;-74
2023/08/20 05:59:29;;;;;;;12.60;5.90;;;;;;;25.96;100.00;99919.39;109319;1251;60053;-75
2023/08/20 06:01:57;;;;;;;23.20;8.30;;;;;;;26.07;100.00;99918.29;109440;1251;74234;-75
2023/08/20 06:04:24;;;;;;;23.40;6.70;;;;;;;26.16;100.00;99916.86;109382;1251;69519;-74
2023/08/20 06:06:52;;;;;;;16.70;7.10;;;;;;;26.25;100.00;99918.16;109405;1251;72743;-74
2023/08/20 06:09:19;;;;;;;12.80;5.00;;;;;;;26.37;100.00;99916.02;109437;1251;58843;-74
2023/08/20 06:11:48;;;;;;;10.90;4.90;;;;;;;26.48;100.00;99912.28;109392;1251;58802;-75
2023/08/20 06:14:15;;;;;;;12.20;4.80;;;;;;;26.58;100.00;99913.45;109410;1251;72603;-76
2023/08/20 06:16:44;;;;;;;11.20;5.10;;;;;;;26.69;100.00;99916.02;109365;1251;70759;-75
2023/08/20 06:19:11;;;;;;;14.50;5.00;;;;;;;26.79;100.00;99916.13;109424;1251;72744;-75
2023/08/20 06:21:39;;;;;;;16.10;5.20;;;;;;;26.89;100.00;99915.77;109393;1254;60500;-75
2023/08/20 06:24:07;;;;;;;7.50;4.30;;;;;;;26.98;100.00;99914.17;109411;1251;60035;-75
2023/08/20 06:26:34;;;;;;;8.20;4.20;;;;;;;27.08;100.00;99909.41;109428;1251;72666;-74
2023/08/20 06:29:02;;;;;;;8.80;4.00;;;;;;;27.17;100.00;99905.33;109422;1251;71134;-74
2023/08/20 06:31:30;;;;;;;8.90;4.10;;;;;;;27.24;100.00;99906.16;109367;1251;71354;-75
2023/08/20 06:33:58;;;;;;;9.10;3.90;;;;;;;27.32;100.00;99900.74;109385;1251;60054;-75
2023/08/20 06:36:25;;;;;;;7.20;3.60;;;;;;;27.41;100.00;99898.77;109427;1251;59177;-75
2023/08/20 06:38:53;;;;;;;8.80;4.90;;;;;;;27.51;100.00;99897.15;109362;1251;72374;-75
2023/08/20 06:41:20;;;;;;;9.80;4.00;;;;;;;27.59;100.00;99899.71;109432;1251;71063;-75
2023/08/20 06:43:48;;;;;;;9.70;3.80;;;;;;;27.66;100.00;99896.13;109381;1251;72594;-76
2023/08/20 06:46:15;;;;;;;10.30;4.00;;;;;;;27.74;100.00;99899.41;109428;1251;58817;-75
2023/08/20 06:48:43;;;;;;;10.10;3.60;;;;;;;27.84;100.00;99895.01;109415;1251;60187;-75
2023/08/20 06:51:19;;;;;;;5.50;3.60;;;;;;;27.96;100.00;99894.05;109412;1251;74336;-75
2023/08/20 06:53:46;;;;;;;5.00;3.50;;;;;;;28.06;100.00;99890.13;109393;1251;70753;-75
2023/08/20 06:56:14;;;;;;;9.80;3.80;;;;;;;28.14;100.00;99888.02;109387;1251;62454;-74
2023/08/20 06:58:42;;;;;;;10.50;4.20;;;;;;;28.24;100.00;99885.67;109391;1251;60608;-74
2023/08/20 07:01:09;;;;;;;17.80;5.20;;;;;;;28.31;100.00;99886.74;109358;1251;60012;-75
2023/08/20 07:03:37;;;;;;;13.00;4.50;;;;;;;28.40;100.00;99882.53;109359;1251;72528;-74
2023/08/20 07:06:05;;;;;;;9.00;5.40;;;;;;;28.50;100.00;99885.98;109421;1251;61124;-75
2023/08/20 07:08:33;;;;;;;14.40;5.90;;;;;;;28.59;100.00;99887.58;109375;1251;62457;-75
2023/08/20 07:11:01;;;;;;;9.00;4.90;;;;;;;28.66;100.00;99884.54;109377;1251;58410;-75
2023/08/20 07:13:28;;;;;;;14.90;6.00;;;;;;;28.74;100.00;99885.52;109447;1251;58420;-75
2023/08/20 07:15:56;;;;;;;9.10;5.00;;;;;;;28.81;100.00;99885.06;109409;1251;63724;-74
2023/08/20 07:18:23;;;;;;;13.20;5.10;;;;;;;28.90;100.00;99883.23;109399;1251;60950;-75
2023/08/20 07:20:52;;;;;;;13.00;5.10;;;;;;;28.98;100.00;99879.96;109406;1251;64900;-76
2023/08/20 07:23:19;;;;;;;8.00;4.70;;;;;;;29.02;100.00;99883.77;109440;1251;58172;-76
2023/08/20 07:25:47;;;;;;;15.20;5.20;;;;;;;29.06;100.00;99884.29;109361;1251;58605;-76
2023/08/20 07:28:14;;;;;;;11.70;4.40;;;;;;;29.15;100.00;99881.77;109411;1251;65483;-74
2023/08/20 07:30:41;;;;;;;19.10;4.60;;;;;;;29.28;100.00;99881.81;109416;1254;62220;-75
2023/08/20 07:33:09;;;;;;;18.40;5.20;;;;;;;29.41;100.00;99878.08;109377;1251;63931;-75
2023/08/20 07:35:36;;;;;;;16.10;4.50;;;;;;;29.49;100.00;99875.31;109413;1251;58149;-74
2023/08/20 07:38:04;;;;;;;10.00;4.00;;;;;;;29.57;100.00;99876.31;109456;1251;58609;-75
2023/08/20 07:40:31;;;;;;;11.10;4.10;;;;;;;29.66;100.00;99878.83;109436;1251;65399;-75
2023/08/20 07:43:02;;;;;;;14.20;3.90;;;;;;;29.68;100.00;99875.82;109380;1251;61170;-76
2023/08/20 07:45:29;;;;;;;7.90;3.80;;;;;;;29.74;100.00;99873.04;109404;1251;63778;-75
2023/08/20 07:47:57;;;;;;;6.20;3.90;;;;;;;29.82;100.00;99870.02;109364;1251;58414;-75
2023/08/20 07:50:24;;;;;;;7.30;3.30;;;;;;;29.89;100.00;99868.86;109418;1251;58357;-75
2023/08/20 07:52:51;;;;;;;10.70;3.50;;;;;;;29.93;100.00;99865.47;109426;1251;63709;-74
2023/08/20 07:55:19;;;;;;;4.10;3.50;;;;;;;29.98;100.00;99863.70;109441;1251;62174;-76
2023/08/20 07:57:48;;;;;;;4.40;3.30;;;;;;;30.06;100.00;99860.88;109381;1251;63658;-75
2023/08/20 08:00:16;;;;;;;4.40;3.10;;;;;;;30.18;100.00;99859.98;109419;1251;58196;-75
2023/08/20 08:02:43;;;;;;;6.10;2.90;;;;;;;30.32;100.00;99856.34;109398;1251;59089;-75
2023/08/20 08:05:12;;;;;;;8.60;3.10;;;;;;;30.43;100.00;99857.25;109424;1251;65059;-73
2023/08/20 08:07:40;;;;;;;9.70;3.60;;;;;;;30.52;100.00;99853.83;109414;1251;70669;-74
2023/08/20 08:10:08;;;;;;;13.60;3.20;;;;;;;30.62;100.00;99853.46;109413;1251;63680;-73
2023/08/20 08:12:35;;;;;;;9.30;3.10;;;;;;;30.67;100.00;99853.04;109399;1251;58171;-74
2023/08/20 08:15:03;;;;;;;6.80;3.10;;;;;;;30.67;100.00;99851.23;109440;1251;58685;-74
2023/08/20 08:17:30;;;;;;;8.50;2.70;;;;;;;30.68;100.00;99852.55;109428;1251;63650;-74
2023/08/20 08:19:58;;;;;;;7.70;2.70;;;;;;;30.70;100.00;99851.50;109360;1251;61117;-74
2023/08/20 08:22:25;;;;;;;7.80;2.40;;;;;;;30.70;100.00;99850.89;109383;1252;62942;-74
2023/08/20 08:24:53;;;;;;;6.90;2.80;;;;;;;30.77;100.00;99849.27;109391;1251;58344;-74
2023/08/20 08:27:20;;;;;;;3.80;2.30;;;;;;;30.90;100.00;99848.88;109409;1251;58286;-74
2023/08/20 08:29:48;;;;;;;7.10;2.50;;;;;;;30.99;100.00;99844.23;109377;1251;63802;-74
2023/08/20 08:32:16;;;;;;;6.10;2.30;;;;;;;30.95;100.00;99842.69;109399;1251;60898;-74
2023/08/20 08:34:43;;;;;;;8.60;2.50;;;;;;;30.94;100.00;99844.58;109404;1251;63809;-74
2023/08/20 08:37:11;;;;;;;13.00;2.90;;;;;;;31.03;100.00;99845.27;109312;1251;58557;-74
2023/08/20 08:39:38;;;;;;;3.00;2.60;;;;;;;31.14;100.00;99845.08;109457;1251;58573;-73
2023/08/20 08:42:07;;;;;;;2.90;2.20;;;;;;;31.21;100.00;99839.66;109436;1251;63714;-74
2023/08/20 08:44:35;;;;;;;3.00;2.20;;;;;;;31.25;100.00;99835.04;109432;1251;61021;-74
2023/08/20 08:47:03;;;;;;;8.70;2.50;;;;;;;31.33;100.00;99838.29;109204;1251;63803;-74
2023/08/20 08:49:34;;;;;;;4.60;2.40;;;;;;;31.46;96.16;99838.71;109414;1251;58391;-74
2023/08/20 08:52:01;;;;;;;8.00;2.40;;;;;;;31.58;93.14;99836.91;109471;1251;58342;-75
2023/08/20 08:54:28;;;;;;;4.60;2.60;;;;;;;31.64;88.42;99833.54;109267;1253;64978;-74
2023/08/20 08:56:56;;;;;;;3.90;2.70;;;;;;;31.68;94.59;99831.77;109409;1251;62821;-73
2023/08/20 08:59:23;;;;;;;8.20;2.40;;;;;;;31.79;97.28;99833.21;109416;1251;63806;-75
2023/08/20 09:01:51;;;;;;;8.60;2.70;;;;;;;31.91;88.81;99830.60;109414;1251;59623;-73
2023/08/20 09:04:18;;;;;;;5.70;2.40;;;;;;;31.93;86.45;99833.43;109461;1251;58194;-73
2023/08/20 09:06:52;;;;;;;4.10;2.10;;;;;;;31.94;92.16;99829.27;109399;1251;63812;-74
2023/08/20 09:09:20;;;;;;;2.20;1.90;;;;;;;32.03;94.39;99824.42;109404;1250;61170;-73
2023/08/20 09:11:48;;;;;;;7.30;2.20;;;;;;;32.18;87.99;99829.01;109392;1251;63706;-74
2023/08/20 09:14:28;;;;;;;6.10;2.30;;;;;;;32.24;74.94;99831.60;109429;1251;58224;-75
2023/08/20 09:17:00;;;;;;;6.30;2.50;;;;;;;32.14;71.04;99834.47;109437;1251;59043;-74
2023/08/20 09:19:35;;;;;;;8.70;2.70;;;;;;;32.05;76.05;99838.68;109229;1251;65399;-74
2023/08/20 09:22:03;;;;;;;4.00;2.20;;;;;;;31.95;74.42;99836.43;109419;1251;62236;-74
2023/08/20 09:24:38;;;;;;;7.00;2.30;;;;;;;31.89;71.35;99830.07;109416;1252;62493;-73
2023/08/20 09:27:05;;;;;;;4.30;2.20;;;;;;;31.96;74.38;99827.63;109431;1251;58499;-74
2023/08/20 09:29:46;;;;;;;4.40;2.00;;;;;;;31.98;75.78;99825.02;109433;1251;58119;-75
2023/08/20 09:32:22;;;;;;;4.60;2.40;;;;;;;32.02;75.88;99820.93;109402;1251;65003;-74
2023/08/20 09:34:50;;;;;;;5.80;2.40;;;;;;;32.14;76.52;99816.51;109427;1251;61082;-74
2023/08/20 09:37:22;;;;;;;5.10;2.20;;;;;;;32.32;73.61;99811.63;109379;1251;63741;-74
2023/08/20 09:39:49;;;;;;;8.00;2.00;;;;;;;32.50;68.12;99808.14;109405;1251;58619;-74
2023/08/20 09:42:17;;;;;;;7.20;2.70;;;;;;;32.63;64.13;99806.23;109462;1251;58213;-74
2023/08/20 09:44:45;;;;;;;7.30;2.60;;;;;;;32.75;67.89;99807.70;109450;1251;64947;-74
2023/08/20 09:47:17;;;;;;;8.30;2.80;;;;;;;32.90;63.50;99810.35;109453;1251;62442;-74
2023/08/20 09:49:46;;;;;;;4.50;2.00;;;;;;;32.94;66.40;99812.41;109405;1253;63931;-74
2023/08/20 09:52:42;;;;;;;9.70;2.60;;;;;;;32.98;66.73;99813.55;109415;1251;58566;-74
2023/08/20 09:55:13;;;;;;;6.10;2.00;;;;;;;33.02;58.13;99814.86;109430;1251;58983;-74
2023/08/20 09:57:41;;;;;;;6.10;2.00;;;;;;;32.97;56.02;99810.64;109313;1251;65008;-74
2023/08/20 10:00:13;;;;;;;8.50;2.20;;;;;;;32.88;58.54;99803.00;109427;1251;62179;-74
2023/08/20 10:02:41;;;;;;;3.40;2.30;;;;;;;32.93;57.19;99808.54;109427;1251;64208;-74
2023/08/20 10:05:09;;;;;;;3.30;2.00;;;;;;;32.94;52.43;99805.54;109401;1251;59541;-74
2023/08/20 10:07:37;;;;;;;3.70;2.10;;;;;;;32.91;52.08;99800.17;109377;1251;58241;-74
2023/08/20 10:10:10;;;;;;;2.50;1.60;;;;;;;32.95;50.20;99798.46;109430;1251;64957;-73
2023/08/20 10:12:39;;;;;;;4.40;2.30;;;;;;;33.04;51.76;99794.96;109442;1251;62287;-74
2023/08/20 10:15:07;;;;;;;7.00;2.20;;;;;;;33.17;49.89;99795.45;109364;1251;62430;-74
2023/08/20 10:17:35;;;;;;;7.50;1.80;;;;;;;33.25;46.28;99795.85;109421;1251;58200;-74
2023/08/20 10:20:07;;;;;;;6.00;2.20;;;;;;;33.33;47.35;99796.13;109272;1251;58138;-74
2023/08/20 10:22:39;;;;;;;2.30;1.70;;;;;;;33.49;50.47;99793.34;109421;1251;65023;-75
2023/08/20 10:25:10;;;;;;;4.10;2.00;;;;;;;33.68;50.86;99786.39;109450;1251;60926;-75
2023/08/20 10:27:39;;;;;;;2.90;1.80;;;;;;;33.86;46.97;99786.63;109376;1251;62436;-74
2023/08/20 10:30:17;;;;;;;2.90;1.70;;;;;;;33.99;42.50;99779.75;109428;1251;58180;-75
2023/08/20 10:32:47;;;;;;;6.40;2.20;;;;;;;33.98;42.32;99778.90;109419;1251;58427;-74
2023/08/20 10:35:28;;;;;;;1.90;1.70;;;;;;;34.00;45.27;99780.50;109419;1251;63649;-75
2023/08/20 10:38:05;;;;;;;5.30;2.20;;;;;;;33.99;45.25;99780.05;109389;1252;70074;-75
2023/08/20 10:40:53;;;;;;;5.80;2.40;;;;;;;33.90;45.90;99770.86;109396;1251;63782;-75
2023/08/20 10:43:30;;;;;;;3.20;1.80;;;;;;;33.90;47.19;99770.63;109424;1251;58482;-74
2023/08/20 10:46:17;;;;;;;5.40;2.50;;;;;;;33.91;46.58;99767.23;109446;1251;58488;-75
2023/08/20 10:48:52;;;;;;;4.70;1.90;;;;;;;33.89;45.86;99762.41;109430;1251;64938;-74
2023/08/20 10:51:23;;;;;;;11.00;2.20;;;;;;;33.90;48.14;99758.73;109397;1251;61064;-75
2023/08/20 10:54:05;;;;;;;4.50;2.30;;;;;;;33.95;52.63;99756.84;109439;1252;63803;-75
2023/08/20 10:56:46;;;;;;;8.10;2.60;;;;;;;34.01;58.93;99755.20;109445;1251;58206;-75
2023/08/20 10:59:21;;;;;;;5.30;2.30;;;;;;;34.13;61.29;99755.73;109428;1251;58221;-75
2023/08/20 11:01:50;;;;;;;3.00;2.20;;;;;;;34.17;63.53;99754.59;109466;1251;63768;-74
2023/08/20 11:04:22;;;;;;;8.40;2.30;;;;;;;34.25;63.84;99753.98;109475;1251;62383;-75
2023/08/20 11:06:52;;;;;;;9.60;2.70;;;;;;;34.22;67.95;99750.77;109410;1251;62492;-74
2023/08/20 11:09:21;;;;;;;7.80;2.80;;;;;;;34.28;69.28;99750.96;109382;1251;58517;-75
2023/08/20 11:11:52;;;;;;;4.20;2.70;;;;;;;34.37;67.21;99751.05;109398;1251;58636;-75
2023/08/20 11:14:20;;;;;;;8.30;2.60;;;;;;;34.33;59.77;99749.60;109422;1251;64929;-75
2023/08/20 11:16:48;;;;;;;5.00;3.00;;;;;;;34.21;66.79;99741.62;109412;1251;62184;-74
2023/08/20 11:19:22;;;;;;;5.60;2.70;;;;;;;34.19;68.52;99738.79;109420;1251;63737;-74
2023/08/20 11:21:50;;;;;;;6.00;3.50;;;;;;;34.22;65.14;99736.91;109414;1251;58628;-74